createdAt,value
2018-07-30T00:01:58.074Z,24.25
2018-07-30T00:04:26.572Z,19.30
2018-07-30T00:06:55.086Z,18.70
2018-07-30T00:09:24.536Z,20.93
2018-07-30T00:11:53.058Z,28.50
2018-07-30T00:14:22.789Z,17.80
2018-07-30T00:16:51.249Z,20.70
2018-07-30T00:19:19.742Z,17.60
2018-07-30T00:21:48.280Z,21.00
2018-07-30T00:24:17.073Z,17.97
2018-07-30T00:26:45.576Z,20.10
2018-07-30T00:31:50.079Z,18.77
2018-07-30T00:34:19.833Z,18.57
2018-07-30T00:36:48.310Z,17.17
2018-07-30T00:39:17.494Z,19.07
2018-07-30T00:41:45.993Z,18.67
2018-07-30T00:52:24.691Z,19.30
2018-07-30T00:54:53.213Z,18.60
2018-07-30T00:57:21.685Z,19.30
2018-07-30T00:59:50.210Z,19.30
2018-07-30T01:02:18.709Z,18.20
2018-07-30T01:04:47.265Z,19.00
2018-07-30T01:07:17.321Z,18.65
2018-07-30T01:09:45.807Z,19.17
2018-07-30T01:31:48.941Z,19.23
2018-07-30T01:34:17.421Z,20.00
2018-07-30T01:36:46.863Z,22.17
2018-07-30T01:39:16.140Z,19.62
2018-07-30T01:41:44.618Z,21.13
2018-07-30T01:44:13.077Z,21.13
2018-07-30T01:46:41.573Z,19.23
2018-07-30T01:49:10.065Z,20.87
2018-07-30T01:51:38.589Z,19.60
2018-07-30T01:54:07.474Z,19.33
2018-07-30T01:56:35.969Z,20.63
2018-07-30T01:59:04.548Z,19.55
2018-07-30T02:01:33.060Z,21.07
2018-07-30T02:04:01.549Z,24.30
2018-07-30T02:06:30.045Z,19.00
2018-07-30T02:08:58.561Z,18.90
2018-07-30T02:11:27.061Z,19.10
2018-07-30T02:13:55.565Z,18.77
2018-07-30T02:16:24.106Z,18.65
2018-07-30T02:18:52.601Z,19.60
2018-07-30T02:21:21.126Z,21.33
2018-07-30T02:23:49.629Z,19.90
2018-07-30T02:26:18.121Z,19.00
2018-07-30T02:28:46.595Z,20.17
2018-07-30T02:31:50.238Z,18.40
2018-07-30T02:34:18.754Z,19.03
2018-07-30T02:36:48.275Z,17.33
2018-07-30T02:39:18.840Z,17.74
2018-07-30T02:41:47.349Z,19.07
2018-07-30T02:44:16.481Z,17.77
2018-07-30T02:46:45.009Z,19.03
2018-07-30T02:49:13.524Z,17.73
2018-07-30T02:51:42.090Z,18.70
2018-07-30T02:54:11.164Z,19.77
2018-07-30T02:56:39.690Z,17.97
2018-07-30T02:59:08.260Z,18.53
2018-07-30T03:01:36.781Z,18.77
2018-07-30T03:04:05.337Z,18.70
2018-07-30T03:06:33.850Z,18.12
2018-07-30T03:09:02.392Z,21.40
2018-07-30T03:11:30.966Z,19.57
2018-07-30T03:13:59.461Z,18.70
2018-07-30T03:16:28.417Z,18.98
2018-07-30T03:18:56.917Z,18.37
2018-07-30T03:21:25.405Z,19.27
2018-07-30T03:23:53.969Z,18.03
2018-07-30T03:26:22.513Z,18.95
2018-07-30T03:28:51.936Z,19.30
2018-07-30T03:31:20.432Z,19.80
2018-07-30T03:33:49.010Z,18.90
2018-07-30T03:36:17.557Z,19.43
2018-07-30T03:38:47.120Z,18.67
2018-07-30T03:47:39.972Z,19.52
2018-07-30T03:50:08.501Z,17.37
2018-07-30T03:52:36.716Z,16.70
2018-07-30T03:55:06.034Z,21.77
2018-07-30T03:57:34.504Z,18.95
2018-07-30T04:00:03.095Z,18.20
2018-07-30T04:02:31.556Z,17.03
2018-07-30T04:05:00.240Z,21.77
2018-07-30T04:07:28.745Z,17.83
2018-07-30T04:09:58.181Z,18.50
2018-07-30T04:12:26.686Z,24.00
2018-07-30T04:14:54.862Z,24.50
2018-07-30T04:17:23.856Z,20.57
2018-07-30T04:19:52.341Z,22.73
2018-07-30T04:22:21.025Z,18.92
2018-07-30T04:24:49.549Z,18.98
2018-07-30T04:27:18.198Z,34.10
2018-07-30T04:29:46.701Z,24.57
2018-07-30T04:43:04.431Z,17.25
2018-07-30T04:45:32.953Z,25.43
2018-07-30T04:48:01.520Z,17.07
2018-07-30T04:50:30.134Z,18.03
2018-07-30T04:52:58.683Z,16.93
2018-07-30T04:55:27.217Z,17.70
2018-07-30T04:57:55.802Z,18.50
2018-07-30T05:00:24.309Z,18.50
2018-07-30T05:02:52.796Z,17.87
2018-07-30T05:05:21.357Z,18.62
2018-07-30T05:07:50.082Z,18.33
2018-07-30T05:10:18.598Z,16.97
2018-07-30T05:12:47.435Z,17.50
2018-07-30T05:15:17.490Z,17.42
2018-07-30T05:17:46.173Z,16.50
2018-07-30T05:28:38.170Z,17.43
2018-07-30T05:31:06.701Z,15.73
2018-07-30T05:33:35.190Z,16.53
2018-07-30T05:36:03.782Z,17.00
2018-07-30T05:38:32.277Z,16.43
2018-07-30T05:41:00.769Z,16.70
2018-07-30T05:43:30.252Z,16.13
2018-07-30T05:45:58.823Z,15.90
2018-07-30T05:48:27.369Z,16.50
2018-07-30T05:50:56.956Z,17.60
2018-07-30T05:53:25.434Z,16.57
2018-07-30T05:55:53.933Z,16.87
2018-07-30T05:58:22.486Z,16.53
2018-07-30T06:00:50.965Z,15.63
2018-07-30T06:03:19.597Z,15.48
2018-07-30T06:05:48.145Z,14.33
2018-07-30T06:08:17.616Z,13.50
2018-07-30T06:10:46.154Z,13.27
2018-07-30T06:23:55.191Z,13.17
2018-07-30T06:26:23.727Z,10.33
2018-07-30T06:28:52.252Z,8.80
2018-07-30T06:31:20.898Z,8.93
2018-07-30T06:33:49.515Z,8.83
2018-07-30T06:36:18.001Z,9.13
2018-07-30T06:38:46.541Z,10.47
2018-07-30T06:58:55.250Z,9.47
2018-07-30T07:01:23.800Z,6.87
2018-07-30T07:03:53.182Z,9.80
2018-07-30T07:06:21.784Z,7.72
2018-07-30T07:08:50.295Z,7.50
2018-07-30T07:11:18.838Z,5.70
2018-07-30T07:13:47.475Z,7.10
2018-07-30T07:24:30.825Z,5.93
2018-07-30T07:26:59.460Z,10.67
2018-07-30T07:29:28.029Z,5.33
2018-07-30T07:31:56.619Z,8.30
2018-07-30T07:34:26.207Z,10.20
2018-07-30T07:36:54.922Z,6.10
2018-07-30T07:39:23.558Z,7.53
2018-07-30T07:41:52.342Z,7.77
2018-07-30T07:44:21.025Z,3.80
2018-07-30T07:46:49.897Z,4.45
2018-07-30T07:49:19.062Z,3.70
2018-07-30T07:51:49.215Z,7.13
2018-07-30T07:54:17.765Z,7.30
2018-07-30T07:56:46.389Z,4.50
2018-07-30T08:19:44.722Z,4.95
2018-07-30T08:22:13.297Z,3.00
2018-07-30T08:24:41.830Z,3.10
2018-07-30T08:27:10.411Z,6.67
2018-07-30T08:29:38.959Z,3.23
2018-07-30T08:32:08.211Z,3.10
2018-07-30T08:34:36.766Z,2.90
2018-07-30T08:37:05.278Z,3.03
2018-07-30T08:39:34.081Z,4.58
2018-07-30T08:42:02.600Z,2.70
2018-07-30T08:44:31.125Z,2.70
2018-07-30T08:46:59.682Z,3.80
2018-07-30T08:49:28.554Z,2.53
2018-07-30T08:51:57.123Z,3.43
2018-07-30T08:54:25.695Z,2.77
2018-07-30T08:56:55.094Z,3.90
2018-07-30T08:59:23.601Z,5.40
2018-07-30T09:01:52.126Z,2.93
2018-07-30T09:04:21.099Z,2.30
2018-07-30T09:06:49.612Z,2.57
2018-07-30T09:09:18.097Z,2.30
2018-07-30T09:11:46.357Z,10.57
2018-07-30T09:20:22.036Z,3.10
2018-07-30T09:22:50.593Z,2.53
2018-07-30T09:25:19.374Z,7.47
2018-07-30T09:27:47.942Z,3.20
2018-07-30T09:31:49.856Z,4.10
2018-07-30T09:34:18.414Z,5.97
2018-07-30T09:36:46.914Z,2.70
2018-07-30T09:47:33.211Z,2.83
2018-07-30T09:50:02.079Z,2.40
2018-07-30T09:52:30.631Z,2.25
2018-07-30T09:55:00.101Z,2.43
2018-07-30T09:57:28.621Z,3.90
2018-07-30T09:59:57.136Z,4.03
2018-07-30T10:02:25.325Z,3.37
2018-07-30T10:04:53.894Z,2.53
2018-07-30T10:07:22.651Z,2.86
2018-07-30T10:09:51.170Z,3.07
2018-07-30T10:12:20.231Z,2.90
2018-07-30T10:14:48.709Z,3.00
2018-07-30T10:17:17.600Z,3.53
2018-07-30T10:19:46.090Z,3.90
2018-07-30T10:41:34.364Z,3.40
2018-07-30T10:44:02.721Z,5.20
2018-07-30T10:46:32.106Z,5.53
2018-07-30T10:49:00.662Z,5.33
2018-07-30T10:51:29.395Z,4.67
2018-07-30T10:53:57.942Z,5.90
2018-07-30T10:56:26.539Z,5.08
2018-07-30T10:58:55.105Z,5.47
2018-07-30T11:01:23.703Z,6.17
2018-07-30T11:03:52.712Z,5.27
2018-07-30T11:06:21.302Z,7.75
2018-07-30T11:08:49.790Z,7.83
2018-07-30T11:11:18.338Z,5.20
2018-07-30T11:13:46.912Z,5.20
2018-07-30T11:22:14.877Z,5.97
2018-07-30T11:24:43.411Z,6.33
2018-07-30T11:27:12.188Z,5.87
2018-07-30T11:29:40.724Z,6.07
2018-07-30T11:32:09.243Z,5.83
2018-07-30T11:34:38.949Z,6.30
2018-07-30T11:37:07.494Z,6.30
2018-07-30T11:39:36.006Z,6.17
2018-07-30T11:42:05.226Z,6.40
2018-07-30T11:44:34.353Z,5.97
2018-07-30T11:47:03.284Z,6.00
2018-07-30T11:49:31.537Z,5.67
2018-07-30T11:52:00.840Z,5.67
2018-07-30T11:54:29.380Z,5.60
2018-07-30T11:56:57.505Z,8.20
2018-07-30T11:59:26.070Z,5.87
2018-07-30T12:01:54.635Z,5.40
2018-07-30T12:04:23.253Z,7.37
2018-07-30T12:06:52.150Z,6.13
2018-07-30T12:09:20.814Z,6.25
2018-07-30T12:11:49.735Z,5.80
2018-07-30T12:14:18.357Z,5.57
2018-07-30T12:16:47.021Z,5.63
2018-07-30T12:30:24.010Z,5.17
2018-07-30T12:32:52.477Z,5.43
2018-07-30T12:35:21.219Z,5.78
2018-07-30T12:37:49.741Z,5.53
2018-07-30T12:40:18.313Z,5.90
2018-07-30T12:42:47.823Z,10.10
2018-07-30T12:45:22.334Z,5.55
2018-07-30T12:47:50.854Z,7.57
2018-07-30T12:50:19.373Z,5.90
2018-07-30T12:52:48.170Z,5.20
2018-07-30T12:55:16.742Z,5.12
2018-07-30T12:57:45.297Z,5.63
2018-07-30T13:18:16.969Z,4.95
2018-07-30T13:20:45.933Z,5.08
2018-07-30T13:31:51.225Z,7.47
2018-07-30T13:34:19.749Z,5.60
2018-07-30T13:36:48.377Z,5.90
2018-07-30T13:39:17.681Z,5.17
2018-07-30T13:41:46.331Z,5.63
2018-07-30T13:52:30.153Z,5.85
2018-07-30T13:54:59.648Z,5.23
2018-07-30T13:57:28.358Z,4.80
2018-07-30T13:59:57.661Z,5.33
2018-07-30T14:02:26.280Z,8.73
2018-07-30T14:04:54.755Z,4.57
2018-07-30T14:07:23.326Z,4.80
2018-07-30T14:09:52.053Z,7.93
2018-07-30T14:12:20.614Z,5.75
2018-07-30T14:14:49.125Z,6.17
2018-07-30T14:17:17.695Z,7.33
2018-07-30T14:19:46.326Z,6.47
2018-07-30T14:41:31.352Z,4.92
2018-07-30T14:43:59.951Z,5.57
2018-07-30T14:46:28.526Z,5.17
2018-07-30T14:48:57.089Z,4.57
2018-07-30T14:51:26.031Z,5.27
2018-07-30T14:53:54.794Z,5.30
2018-07-30T14:56:24.050Z,5.00
2018-07-30T14:58:52.639Z,5.25
2018-07-30T15:01:21.160Z,5.47
2018-07-30T15:03:50.037Z,5.23
2018-07-30T15:06:18.579Z,6.33
2018-07-30T15:08:47.068Z,5.70
2018-07-30T15:17:11.207Z,5.93
2018-07-30T15:19:39.878Z,5.77
2018-07-30T15:22:08.506Z,4.37
2018-07-30T15:24:37.297Z,5.03
2018-07-30T15:27:06.244Z,4.10
2018-07-30T15:29:37.461Z,5.57
2018-07-30T15:32:06.636Z,4.50
2018-07-30T15:34:34.857Z,4.00
2018-07-30T15:37:04.405Z,4.83
2018-07-30T15:39:33.919Z,6.73
2018-07-30T15:42:03.081Z,4.33
2018-07-30T15:44:32.185Z,4.30
2018-07-30T15:47:01.482Z,4.40
2018-07-30T15:49:30.553Z,4.67
2018-07-30T15:52:00.723Z,5.17
2018-07-30T15:54:29.719Z,6.30
2018-07-30T15:56:58.852Z,7.70
2018-07-30T15:59:27.349Z,6.10
2018-07-30T16:01:56.103Z,5.00
2018-07-30T16:04:24.615Z,6.90
2018-07-30T16:06:53.140Z,5.00
2018-07-30T16:09:22.153Z,4.63
2018-07-30T16:11:50.366Z,4.33
2018-07-30T16:14:18.953Z,4.20
2018-07-30T16:16:47.488Z,5.10
2018-07-30T16:19:17.411Z,6.65
2018-07-30T16:21:45.597Z,4.93
2018-07-30T16:31:51.106Z,5.03
2018-07-30T16:34:19.643Z,5.37
2018-07-30T16:38:38.751Z,5.73
2018-07-30T16:41:07.284Z,4.27
2018-07-30T16:43:35.836Z,5.23
2018-07-30T16:46:04.441Z,4.93
2018-07-30T16:48:33.225Z,7.42
2018-07-30T16:51:01.802Z,4.73
2018-07-30T16:53:30.516Z,7.53
2018-07-30T16:55:59.048Z,5.40
2018-07-30T16:58:28.513Z,4.95
2018-07-30T17:00:56.751Z,4.80
2018-07-30T17:03:25.689Z,11.20
2018-07-30T17:05:54.268Z,8.30
2018-07-30T17:08:23.722Z,5.07
2018-07-30T17:10:52.467Z,5.03
2018-07-30T17:13:20.664Z,5.25
2018-07-30T17:15:49.812Z,5.53
2018-07-30T17:18:18.522Z,5.17
2018-07-30T17:20:46.728Z,5.53
2018-07-30T17:31:49.110Z,4.95
2018-07-30T17:34:17.698Z,5.10
2018-07-30T17:36:46.206Z,7.60
2018-07-30T17:47:25.527Z,5.90
2018-07-30T17:49:54.617Z,6.27
2018-07-30T17:52:23.115Z,6.50
2018-07-30T17:54:51.982Z,5.60
2018-07-30T17:57:22.089Z,84.90
2018-07-30T17:59:51.560Z,10.73
2018-07-30T18:02:19.926Z,9.73
2018-07-30T18:04:48.432Z,8.80
2018-07-30T18:07:17.401Z,7.40
2018-07-30T18:09:45.869Z,5.60
2018-07-30T18:34:19.407Z,9.83
2018-07-30T18:36:48.406Z,7.53
2018-07-30T18:39:17.430Z,14.13
2018-07-30T18:41:46.022Z,7.00
2018-07-30T18:51:59.140Z,6.95
2018-07-30T18:54:27.637Z,6.83
2018-07-30T18:56:56.146Z,7.10
2018-07-30T18:59:24.360Z,6.73
2018-07-30T19:01:53.386Z,8.43
2018-07-30T19:04:21.928Z,10.93
2018-07-30T19:06:50.674Z,7.83
2018-07-30T19:09:19.328Z,7.80
2018-07-30T19:11:47.976Z,8.50
2018-07-30T19:31:51.385Z,11.03
